Klamath Falls Airport

Airport
ICAO code: 
KLMT
Summary
ICAO Region: 
NAM
Territory: 
Location: 
Klamath Falls, Oregon,
Coordinates: 
Aerial View: 
42° 9' 53.942" N, 121° 44' 12.408" W
Airport BS: 
Bird Strike
Airport WX: 
Mountain Waves
Metar
Observation
KLMT 040653Z AUTO 00000KT 10SM CLR M03/M04 A3016 RMK AO2 SLP229 T10281039
Station
Klamath Falls, Klamath Falls International Airport
Date/Time
2021-12-04 06:53:00
Wind direction
Wind speed
00 kts
Lowest cloud amount
n/a
Temperature
-2.8°C
Dew point
-3.9°C
Humidity
92%
Weather condition
n/a

Description

Klamath Falls Airport is a joint-use public/military (ANG) airport located 8 km southeast of Klamath Falls, a city in Klamath County, Oregon.

Climatology

Oceanic/Dry-summer subtropical ”Mediterranean" climate (Köppen climate classification Csb) - characterized by warm, dry summers and mild winters.

Runways

Designator Length Width Surface Rops
1/19 1573 30 ASP No/No
7/25 1603 30 ASP Yes/Yes
14/32 3140 46 PEM Yes/Yes
Airport map: 
Aerial View: 

SKYbrary Partners:

Safety knowledge contributed by: